createdAt,value
2019-05-16T00:01:34.074Z,6.03
2019-05-16T00:04:08.689Z,6.03
2019-05-16T00:06:40.690Z,5.83
2019-05-16T00:09:13.394Z,6.10
2019-05-16T00:11:45.050Z,5.50
2019-05-16T00:14:18.844Z,6.10
2019-05-16T00:16:51.314Z,5.57
2019-05-16T00:19:24.035Z,5.70
2019-05-16T00:21:58.117Z,5.90
2019-05-16T00:24:30.673Z,5.60
2019-05-16T00:27:04.106Z,5.30
2019-05-16T00:29:38.170Z,5.80
2019-05-16T00:32:11.390Z,5.70
2019-05-16T00:34:47.799Z,5.40
2019-05-16T00:37:22.945Z,5.50
2019-05-16T00:39:53.387Z,5.70
2019-05-16T00:42:28.638Z,5.60
2019-05-16T00:45:00.834Z,5.77
2019-05-16T00:47:33.100Z,6.30
2019-05-16T00:50:09.717Z,5.97
2019-05-16T00:52:42.441Z,6.00
2019-05-16T00:55:17.776Z,6.07
2019-05-16T00:57:52.002Z,6.57
2019-05-16T01:00:49.411Z,6.33
2019-05-16T01:03:21.027Z,6.13
2019-05-16T01:05:52.569Z,5.83
2019-05-16T01:08:24.199Z,6.00
2019-05-16T01:10:55.765Z,6.60
2019-05-16T01:13:27.850Z,6.13
2019-05-16T01:19:11.617Z,5.70
2019-05-16T01:21:44.693Z,6.87
2019-05-16T01:24:18.769Z,6.03
2019-05-16T01:26:50.442Z,6.43
2019-05-16T01:29:22.261Z,6.40
2019-05-16T01:31:59.023Z,6.43
2019-05-16T01:34:31.757Z,7.23
2019-05-16T01:37:08.257Z,7.63
2019-05-16T01:39:41.826Z,7.73
2019-05-16T01:42:15.694Z,7.27
2019-05-16T01:44:48.703Z,7.60
2019-05-16T01:47:21.531Z,8.50
2019-05-16T01:49:53.768Z,7.47
2019-05-16T01:52:28.920Z,7.03
2019-05-16T01:55:00.699Z,7.03
2019-05-16T01:57:33.815Z,6.83
2019-05-16T02:00:08.462Z,6.40
2019-05-16T02:02:40.538Z,5.97
2019-05-16T02:05:15.358Z,6.53
2019-05-16T02:07:48.137Z,6.50
2019-05-16T02:10:20.906Z,6.63
2019-05-16T02:12:53.361Z,6.57
2019-05-16T02:15:25.306Z,5.70
2019-05-16T02:17:58.691Z,6.47
2019-05-16T02:20:31.060Z,6.60
2019-05-16T02:23:08.026Z,6.17
2019-05-16T02:25:40.813Z,6.40
2019-05-16T02:28:13.160Z,6.27
2019-05-16T02:30:45.375Z,6.37
2019-05-16T02:33:20.925Z,6.37
2019-05-16T02:35:55.583Z,6.43
2019-05-16T02:38:25.623Z,7.10
2019-05-16T02:41:02.635Z,7.00
2019-05-16T02:43:33.278Z,7.20
2019-05-16T02:46:06.302Z,7.03
2019-05-16T02:48:41.015Z,6.60
2019-05-16T02:51:13.308Z,7.33
2019-05-16T02:53:45.507Z,7.13
2019-05-16T02:56:17.223Z,7.60
2019-05-16T02:58:52.122Z,7.37
2019-05-16T03:04:30.641Z,7.50
2019-05-16T03:07:03.621Z,7.33
2019-05-16T03:09:41.043Z,8.23
2019-05-16T03:12:13.786Z,7.60
2019-05-16T03:14:50.286Z,8.00
2019-05-16T03:17:23.771Z,7.83
2019-05-16T03:20:01.529Z,7.43
2019-05-16T03:22:34.176Z,7.87
2019-05-16T03:25:12.188Z,7.83
2019-05-16T03:27:44.541Z,7.83
2019-05-16T03:30:23.260Z,7.27
2019-05-16T03:32:54.645Z,7.20
2019-05-16T03:35:25.991Z,7.53
2019-05-16T03:38:03.995Z,6.93
2019-05-16T03:40:35.127Z,6.97
2019-05-16T03:43:11.352Z,6.83
2019-05-16T03:45:42.412Z,6.93
2019-05-16T03:48:14.498Z,6.73
2019-05-16T03:50:50.455Z,6.40
2019-05-16T03:53:21.590Z,6.80
2019-05-16T03:55:53.687Z,7.10
2019-05-16T03:58:27.299Z,7.27
2019-05-16T04:01:02.233Z,7.07
2019-05-16T04:03:35.269Z,6.83
2019-05-16T04:06:11.541Z,7.00
2019-05-16T04:08:41.685Z,7.87
2019-05-16T04:11:18.200Z,7.67
2019-05-16T04:13:50.804Z,7.27
2019-05-16T04:16:24.562Z,7.63
2019-05-16T04:18:57.925Z,7.17
2019-05-16T04:21:32.326Z,7.23
2019-05-16T04:24:05.866Z,7.67
2019-05-16T04:26:40.932Z,7.73
2019-05-16T04:29:12.344Z,7.73
2019-05-16T04:31:44.138Z,7.43
2019-05-16T04:34:16.279Z,7.53
2019-05-16T04:36:51.214Z,7.30
2019-05-16T04:39:24.408Z,7.20
2019-05-16T04:41:56.196Z,7.23
2019-05-16T04:44:31.040Z,6.80
2019-05-16T04:47:02.491Z,7.53
2019-05-16T04:49:34.650Z,7.47
2019-05-16T04:52:07.328Z,7.13
2019-05-16T04:54:44.624Z,7.43
2019-05-16T04:57:20.976Z,7.73
2019-05-16T04:59:53.230Z,7.40
2019-05-16T05:02:26.363Z,7.80
2019-05-16T05:05:01.265Z,7.23
2019-05-16T05:07:33.748Z,7.47
2019-05-16T05:10:10.941Z,7.80
2019-05-16T05:12:45.728Z,7.53
2019-05-16T05:18:30.258Z,7.30
2019-05-16T05:21:03.096Z,7.20
2019-05-16T05:23:35.176Z,7.57
2019-05-16T05:26:07.409Z,7.20
2019-05-16T05:28:41.064Z,6.93
2019-05-16T05:31:13.856Z,6.90
2019-05-16T05:33:46.556Z,7.23
2019-05-16T05:36:20.822Z,7.30
2019-05-16T05:39:07.461Z,7.00
2019-05-16T05:41:27.505Z,7.07
2019-05-16T05:44:01.248Z,6.83
2019-05-16T05:46:33.109Z,6.83
2019-05-16T05:49:05.667Z,6.40
2019-05-16T05:51:37.569Z,6.10
2019-05-16T05:54:10.903Z,6.70
2019-05-16T05:56:45.096Z,6.30
2019-05-16T05:59:16.802Z,6.17
2019-05-16T06:01:51.633Z,6.13
2019-05-16T06:04:23.144Z,5.87
2019-05-16T06:06:55.186Z,6.20
2019-05-16T06:09:32.005Z,6.33
2019-05-16T06:12:07.525Z,6.47
2019-05-16T06:14:57.940Z,5.73
2019-05-16T06:17:33.522Z,5.93
2019-05-16T06:20:14.076Z,6.33
2019-05-16T06:22:42.025Z,6.03
2019-05-16T06:25:14.068Z,6.27
2019-05-16T06:27:46.516Z,6.80
2019-05-16T06:30:21.307Z,6.70
2019-05-16T06:32:53.869Z,6.33
2019-05-16T06:35:26.588Z,5.57
2019-05-16T06:38:00.587Z,6.67
2019-05-16T06:40:32.739Z,5.73
2019-05-16T06:43:06.032Z,5.90
2019-05-16T06:45:40.224Z,5.77
2019-05-16T06:48:21.442Z,5.93
2019-05-16T06:50:54.995Z,5.30
2019-05-16T06:53:29.768Z,5.17
2019-05-16T06:56:01.571Z,5.83
2019-05-16T06:59:05.805Z,5.27
2019-05-16T07:01:40.476Z,5.40
2019-05-16T07:04:13.640Z,5.10
2019-05-16T07:06:58.091Z,5.40
2019-05-16T07:09:22.732Z,5.83
2019-05-16T07:12:34.130Z,5.33
2019-05-16T07:15:50.201Z,5.17
2019-05-16T07:18:40.356Z,5.10
2019-05-16T07:21:15.489Z,5.73
2019-05-16T07:23:51.017Z,5.27
2019-05-16T07:26:22.730Z,5.40
2019-05-16T07:28:55.465Z,5.73
2019-05-16T07:31:29.963Z,5.50
2019-05-16T07:34:24.122Z,5.17
2019-05-16T07:36:57.560Z,5.63
2019-05-16T07:39:30.675Z,5.80
2019-05-16T07:42:27.418Z,5.17
2019-05-16T07:45:10.379Z,5.00
2019-05-16T07:47:43.010Z,4.30
2019-05-16T07:50:15.362Z,4.90
2019-05-16T07:52:50.833Z,4.60
2019-05-16T07:55:22.714Z,5.00
2019-05-16T07:57:55.532Z,4.67
2019-05-16T08:00:48.007Z,4.80
2019-05-16T08:03:04.768Z,5.07
2019-05-16T08:05:41.237Z,5.67
2019-05-16T08:08:13.636Z,6.23
2019-05-16T08:10:47.101Z,7.10
2019-05-16T08:13:21.131Z,8.07
2019-05-16T08:15:55.106Z,8.20
2019-05-16T08:18:30.207Z,7.93
2019-05-16T08:21:02.908Z,6.87
2019-05-16T08:24:14.025Z,6.80
2019-05-16T08:26:50.495Z,7.37
2019-05-16T08:29:33.586Z,5.70
2019-05-16T08:32:15.302Z,5.10
2019-05-16T08:34:51.455Z,4.50
2019-05-16T08:37:36.833Z,4.60
2019-05-16T08:39:56.820Z,4.10
2019-05-16T08:42:32.282Z,4.17
2019-05-16T08:45:05.228Z,4.50
2019-05-16T08:47:41.894Z,3.20
2019-05-16T08:50:46.324Z,3.40
2019-05-16T08:53:37.282Z,2.90
2019-05-16T08:56:13.267Z,3.53
2019-05-16T08:59:04.392Z,3.33
2019-05-16T09:01:51.450Z,3.53
2019-05-16T09:04:17.409Z,3.27
2019-05-16T09:10:00.882Z,3.43
2019-05-16T09:12:33.651Z,4.90
2019-05-16T09:15:07.674Z,3.50
2019-05-16T09:17:40.241Z,3.50
2019-05-16T09:20:17.170Z,3.60
2019-05-16T09:22:49.160Z,3.23
2019-05-16T09:25:22.309Z,3.50
2019-05-16T09:31:07.497Z,2.70
2019-05-16T09:33:40.246Z,2.93
2019-05-16T09:36:12.762Z,2.90
2019-05-16T09:38:48.474Z,2.93
2019-05-16T09:41:21.093Z,3.03
2019-05-16T09:43:54.729Z,3.00
2019-05-16T09:46:58.589Z,2.97
2019-05-16T09:49:40.212Z,3.40
2019-05-16T09:52:51.741Z,3.00
2019-05-16T09:55:31.274Z,3.23
2019-05-16T09:58:07.134Z,3.00
2019-05-16T10:00:38.172Z,2.60
2019-05-16T10:06:21.878Z,2.60
2019-05-16T10:08:54.384Z,2.90
2019-05-16T10:11:31.066Z,2.80
2019-05-16T10:13:59.665Z,2.83
2019-05-16T10:16:32.231Z,2.60
2019-05-16T10:19:04.552Z,2.80
2019-05-16T10:21:37.901Z,3.03
2019-05-16T10:24:10.226Z,3.00
2019-05-16T10:26:46.736Z,2.80
2019-05-16T10:29:19.360Z,3.10
2019-05-16T10:31:53.239Z,2.97
2019-05-16T10:34:26.613Z,3.20
2019-05-16T10:40:10.057Z,3.27
2019-05-16T10:42:42.279Z,3.00
2019-05-16T10:45:16.591Z,3.17
2019-05-16T10:47:48.853Z,3.20
2019-05-16T10:50:21.955Z,3.60
2019-05-16T10:53:22.301Z,3.77
2019-05-16T10:55:36.806Z,3.60
2019-05-16T10:58:09.266Z,3.90
2019-05-16T11:01:07.786Z,4.30
2019-05-16T11:03:18.142Z,3.63
2019-05-16T11:09:01.115Z,4.10
2019-05-16T11:11:36.636Z,4.43
2019-05-16T11:17:19.574Z,3.60
2019-05-16T11:19:52.079Z,4.00
2019-05-16T11:22:29.516Z,3.77
2019-05-16T11:24:58.746Z,3.83
2019-05-16T11:27:32.561Z,3.90
2019-05-16T11:30:07.731Z,3.57
2019-05-16T11:32:40.079Z,3.70
2019-05-16T11:35:12.357Z,3.50
2019-05-16T11:37:46.920Z,3.43
2019-05-16T11:40:24.088Z,3.70
2019-05-16T11:43:06.605Z,3.60
2019-05-16T11:45:30.018Z,3.73
2019-05-16T11:48:01.809Z,3.50
2019-05-16T11:50:36.962Z,3.70
2019-05-16T11:53:07.960Z,4.10
2019-05-16T11:55:51.741Z,3.53
2019-05-16T11:58:14.190Z,3.50
2019-05-16T12:00:48.175Z,3.80
2019-05-16T12:03:19.593Z,4.07
2019-05-16T12:05:51.894Z,3.43
2019-05-16T12:11:34.762Z,3.87
2019-05-16T12:14:07.610Z,3.83
2019-05-16T12:19:52.969Z,3.80
2019-05-16T12:22:26.678Z,3.63
2019-05-16T12:24:58.066Z,4.10
2019-05-16T12:27:33.249Z,3.40
2019-05-16T12:30:13.022Z,3.90
2019-05-16T12:32:41.471Z,3.77
2019-05-16T12:38:24.274Z,3.73
2019-05-16T12:40:56.820Z,3.57
2019-05-16T12:43:44.808Z,4.30
2019-05-16T12:46:07.530Z,4.40
2019-05-16T12:48:39.070Z,4.70
2019-05-16T12:51:11.830Z,4.20
2019-05-16T12:53:44.337Z,4.50
2019-05-16T12:56:22.727Z,4.67
2019-05-16T12:58:56.473Z,4.40
2019-05-16T13:01:34.203Z,4.73
2019-05-16T13:04:01.874Z,4.80
2019-05-16T13:06:33.762Z,4.37
2019-05-16T13:09:07.788Z,4.43
2019-05-16T13:11:40.083Z,4.40
2019-05-16T13:14:12.021Z,4.27
2019-05-16T13:16:47.389Z,4.03
2019-05-16T13:19:19.077Z,3.90
2019-05-16T13:21:51.437Z,4.23
2019-05-16T13:24:24.073Z,3.80
2019-05-16T13:30:08.883Z,4.60
2019-05-16T13:32:41.062Z,3.77
2019-05-16T13:35:13.237Z,4.17
2019-05-16T13:37:47.724Z,4.10
2019-05-16T13:40:20.438Z,3.70
2019-05-16T13:42:53.086Z,3.93
2019-05-16T13:45:27.267Z,4.07
2019-05-16T13:47:59.245Z,3.90
2019-05-16T13:50:31.443Z,4.10
2019-05-16T13:53:02.997Z,4.07
2019-05-16T13:55:34.796Z,3.67
2019-05-16T13:58:08.231Z,3.60
2019-05-16T14:00:40.471Z,3.80
2019-05-16T14:03:12.139Z,4.07
2019-05-16T14:05:43.698Z,3.67
2019-05-16T14:08:17.064Z,4.27
2019-05-16T14:10:49.692Z,3.90
2019-05-16T14:13:22.332Z,4.30
2019-05-16T14:15:54.054Z,4.20
2019-05-16T14:18:27.251Z,4.30
2019-05-16T14:20:59.687Z,4.90
2019-05-16T14:23:31.850Z,4.27
2019-05-16T14:26:07.124Z,4.50
2019-05-16T14:28:38.011Z,4.57
2019-05-16T14:31:10.263Z,4.27
2019-05-16T14:33:42.207Z,4.53
2019-05-16T14:36:14.504Z,4.60
2019-05-16T14:38:46.828Z,4.53
2019-05-16T14:41:18.653Z,4.67
2019-05-16T14:43:51.907Z,5.30
2019-05-16T14:46:23.757Z,5.17
2019-05-16T14:48:55.840Z,5.13
2019-05-16T14:51:31.891Z,4.80
2019-05-16T14:54:02.514Z,5.20
2019-05-16T14:56:34.813Z,5.23
2019-05-16T14:59:08.404Z,5.70
2019-05-16T15:01:40.688Z,5.47
2019-05-16T15:04:13.310Z,5.57
2019-05-16T15:06:46.948Z,5.10
2019-05-16T15:09:20.439Z,5.60
2019-05-16T15:11:53.637Z,5.30
2019-05-16T15:14:28.035Z,5.50
2019-05-16T15:17:00.263Z,5.60
2019-05-16T15:19:32.425Z,5.80
2019-05-16T15:22:04.275Z,5.70
2019-05-16T15:24:37.794Z,5.40
2019-05-16T15:27:09.648Z,5.60
2019-05-16T15:29:41.750Z,4.77
2019-05-16T15:32:14.014Z,5.43
2019-05-16T15:34:47.811Z,4.93
2019-05-16T15:37:19.546Z,5.10
2019-05-16T15:39:54.353Z,5.00
2019-05-16T15:42:27.800Z,5.30
2019-05-16T15:44:59.836Z,5.03
2019-05-16T15:47:32.280Z,5.30
2019-05-16T15:50:04.225Z,5.23
2019-05-16T15:52:38.597Z,4.87
2019-05-16T15:55:12.193Z,5.27
2019-05-16T15:57:43.786Z,4.90
2019-05-16T16:00:18.207Z,4.70
2019-05-16T16:02:49.489Z,5.00
2019-05-16T16:05:21.916Z,5.20
2019-05-16T16:07:54.171Z,4.90
2019-05-16T16:10:37.802Z,4.90
2019-05-16T16:13:09.716Z,5.27
2019-05-16T16:15:50.461Z,5.10
2019-05-16T16:18:19.502Z,5.20
2019-05-16T16:20:48.671Z,6.07
2019-05-16T16:23:20.872Z,5.00
2019-05-16T16:25:53.221Z,5.30
2019-05-16T16:28:27.088Z,6.10
2019-05-16T16:30:58.497Z,6.27
2019-05-16T16:33:30.545Z,5.40
2019-05-16T16:36:02.395Z,5.73
2019-05-16T16:38:37.051Z,5.83
2019-05-16T16:41:08.503Z,5.83
2019-05-16T16:43:41.906Z,6.00
2019-05-16T16:46:16.647Z,5.97
2019-05-16T16:48:48.080Z,5.97
2019-05-16T16:51:20.533Z,6.10
2019-05-16T16:53:52.722Z,5.87
2019-05-16T16:56:27.409Z,5.50
2019-05-16T16:59:00.062Z,5.47
2019-05-16T17:01:38.116Z,5.57
2019-05-16T17:04:11.101Z,5.80
2019-05-16T17:06:43.020Z,6.40
2019-05-16T17:09:15.845Z,6.30
2019-05-16T17:11:48.069Z,6.47
2019-05-16T17:14:20.907Z,5.70
2019-05-16T17:20:03.639Z,5.70
2019-05-16T17:22:37.475Z,6.13
2019-05-16T17:25:11.364Z,5.90
2019-05-16T17:27:43.253Z,5.53
2019-05-16T17:30:18.411Z,5.60
2019-05-16T17:32:50.395Z,5.57
2019-05-16T17:35:30.928Z,6.10
2019-05-16T17:38:03.259Z,5.70
2019-05-16T17:40:37.479Z,5.97
2019-05-16T17:43:10.827Z,5.37
2019-05-16T17:45:43.015Z,5.50
2019-05-16T17:48:17.802Z,5.53
2019-05-16T17:50:51.479Z,5.27
2019-05-16T17:53:26.655Z,5.63
2019-05-16T17:55:58.848Z,5.50
2019-05-16T17:58:30.979Z,5.23
2019-05-16T18:01:06.812Z,5.33
2019-05-16T18:03:39.633Z,5.23
2019-05-16T18:06:12.989Z,6.07
2019-05-16T18:08:46.873Z,5.87
2019-05-16T18:11:22.209Z,5.20
2019-05-16T18:13:54.109Z,5.33
2019-05-16T18:16:26.926Z,5.40
2019-05-16T18:19:00.819Z,5.80
2019-05-16T18:21:33.609Z,6.87
2019-05-16T18:24:06.160Z,6.47
2019-05-16T18:26:38.765Z,6.83
2019-05-16T18:29:11.806Z,6.90
2019-05-16T18:31:44.163Z,6.70
2019-05-16T18:34:17.152Z,6.10
2019-05-16T18:36:50.345Z,6.37
2019-05-16T18:39:23.113Z,7.67
2019-05-16T18:41:59.846Z,7.37
2019-05-16T18:44:36.460Z,7.30
2019-05-16T18:47:11.362Z,7.07
2019-05-16T18:49:41.616Z,7.73
2019-05-16T18:52:17.190Z,7.03
2019-05-16T18:54:51.143Z,7.07
2019-05-16T18:57:23.586Z,7.50
2019-05-16T18:59:56.995Z,6.97
2019-05-16T19:02:39.333Z,7.70
2019-05-16T19:05:12.388Z,6.70
2019-05-16T19:08:13.044Z,6.53
2019-05-16T19:10:47.419Z,6.60
2019-05-16T19:13:19.993Z,7.63
2019-05-16T19:15:52.636Z,6.90
2019-05-16T19:18:26.311Z,7.47
2019-05-16T19:21:02.093Z,7.47
2019-05-16T19:26:47.033Z,7.20
2019-05-16T19:29:19.555Z,5.40
2019-05-16T19:31:52.918Z,5.80
2019-05-16T19:34:27.047Z,5.13
2019-05-16T19:37:00.170Z,5.53
2019-05-16T19:39:32.621Z,4.93
2019-05-16T19:42:06.664Z,5.23
2019-05-16T19:44:38.770Z,5.27
2019-05-16T19:47:13.500Z,5.17
2019-05-16T19:49:48.239Z,5.13
2019-05-16T19:52:20.396Z,4.73
2019-05-16T19:54:52.728Z,5.13
2019-05-16T19:57:26.606Z,5.63
2019-05-16T20:00:00.196Z,5.27
2019-05-16T20:02:31.808Z,4.83
2019-05-16T20:05:06.934Z,5.17
2019-05-16T20:10:19.306Z,4.80
2019-05-16T20:12:51.349Z,4.70
2019-05-16T20:18:37.357Z,5.00
2019-05-16T20:21:11.485Z,4.93
2019-05-16T20:24:27.576Z,4.80
2019-05-16T20:27:10.329Z,4.60
2019-05-16T20:29:43.879Z,4.60
2019-05-16T20:32:16.879Z,4.93
2019-05-16T20:34:49.911Z,5.20
2019-05-16T20:37:26.607Z,5.20
2019-05-16T20:39:59.500Z,4.80
2019-05-16T20:42:32.525Z,4.77
2019-05-16T20:45:07.785Z,4.90
2019-05-16T20:47:41.162Z,5.30
2019-05-16T20:50:13.435Z,4.67
2019-05-16T20:52:49.639Z,4.50
2019-05-16T20:55:26.812Z,4.63
2019-05-16T20:58:00.032Z,5.23
2019-05-16T21:00:32.664Z,5.07
2019-05-16T21:03:07.704Z,4.60
2019-05-16T21:08:51.471Z,5.17
2019-05-16T21:11:26.410Z,5.07
2019-05-16T21:13:58.974Z,4.90
2019-05-16T21:16:31.412Z,4.93
2019-05-16T21:19:18.333Z,5.20
2019-05-16T21:21:51.462Z,4.83
2019-05-16T21:24:26.789Z,5.33
2019-05-16T21:27:00.308Z,5.20
2019-05-16T21:29:32.508Z,5.27
2019-05-16T21:32:08.768Z,5.47
2019-05-16T21:34:42.366Z,5.10
2019-05-16T21:37:19.716Z,5.53
2019-05-16T21:39:51.874Z,5.03
2019-05-16T21:42:24.344Z,4.90
2019-05-16T21:44:58.455Z,5.00
2019-05-16T21:47:32.118Z,5.40
2019-05-16T21:50:08.501Z,5.10
2019-05-16T21:52:42.031Z,5.40
2019-05-16T21:55:18.944Z,5.17
2019-05-16T21:57:57.265Z,5.50
2019-05-16T22:00:37.473Z,5.37
2019-05-16T22:03:14.415Z,4.93
2019-05-16T22:05:47.780Z,5.83
2019-05-16T22:08:20.804Z,5.73
2019-05-16T22:11:12.943Z,6.00
2019-05-16T22:13:46.480Z,5.87
2019-05-16T22:16:20.734Z,6.20
2019-05-16T22:18:53.323Z,6.00
2019-05-16T22:21:39.125Z,6.23
2019-05-16T22:24:13.453Z,6.03
2019-05-16T22:26:46.684Z,6.33
2019-05-16T22:29:26.312Z,6.03
2019-05-16T22:31:59.715Z,6.60
2019-05-16T22:34:32.959Z,6.43
2019-05-16T22:37:06.962Z,6.13
2019-05-16T22:39:41.661Z,6.20
2019-05-16T22:42:13.861Z,6.40
2019-05-16T22:44:49.814Z,6.53
2019-05-16T22:47:30.363Z,6.17
2019-05-16T22:50:03.209Z,6.80
2019-05-16T22:52:37.627Z,6.80
2019-05-16T22:55:12.014Z,6.57
2019-05-16T22:57:43.786Z,7.27
2019-05-16T23:00:29.340Z,6.77
2019-05-16T23:03:06.782Z,7.23
2019-05-16T23:05:40.006Z,7.10
2019-05-16T23:08:12.972Z,7.23
2019-05-16T23:10:46.616Z,6.97
2019-05-16T23:13:18.361Z,6.87
2019-05-16T23:15:57.003Z,7.20
2019-05-16T23:18:31.623Z,7.07
2019-05-16T23:21:06.440Z,7.40
2019-05-16T23:23:39.680Z,7.47
2019-05-16T23:26:16.605Z,7.47
2019-05-16T23:28:47.818Z,7.60
2019-05-16T23:31:22.900Z,7.27
2019-05-16T23:33:57.377Z,7.93
2019-05-16T23:36:30.557Z,8.37
2019-05-16T23:39:06.274Z,7.27
2019-05-16T23:41:38.971Z,7.10
2019-05-16T23:44:11.481Z,7.87
2019-05-16T23:46:43.332Z,7.80
2019-05-16T23:49:27.370Z,7.87
2019-05-16T23:51:59.621Z,8.10
2019-05-16T23:54:33.592Z,7.87
2019-05-16T23:57:08.191Z,7.43
2019-05-16T23:59:40.400Z,7.73
